sensor_id;sensor_type;location;lat;lon;timestamp;temperature;humidity
18297;DHT22;18066;52.106;5.534;2023-04-15T00:00:48;9.00;99.90
18297;DHT22;18066;52.106;5.534;2023-04-15T00:03:16;8.40;99.90
18297;DHT22;18066;52.106;5.534;2023-04-15T00:05:43;8.30;99.90
18297;DHT22;18066;52.106;5.534;2023-04-15T00:08:10;7.80;99.90
18297;DHT22;18066;52.106;5.534;2023-04-15T00:10:38;8.40;99.90
18297;DHT22;18066;52.106;5.534;2023-04-15T00:13:08;8.80;99.90
18297;DHT22;18066;52.106;5.534;2023-04-15T00:15:35;8.20;99.90
18297;DHT22;18066;52.106;5.534;2023-04-15T00:18:02;8.90;99.90
18297;DHT22;18066;52.106;5.534;2023-04-15T00:20:29;8.60;99.90
18297;DHT22;18066;52.106;5.534;2023-04-15T00:22:56;8.90;99.90
18297;DHT22;18066;52.106;5.534;2023-04-15T00:25:25;8.00;99.90
18297;DHT22;18066;52.106;5.534;2023-04-15T00:27:53;8.60;99.90
18297;DHT22;18066;52.106;5.534;2023-04-15T00:30:20;8.20;99.90
18297;DHT22;18066;52.106;5.534;2023-04-15T00:32:48;8.10;99.90
18297;DHT22;18066;52.106;5.534;2023-04-15T00:35:15;8.60;99.90
18297;DHT22;18066;52.106;5.534;2023-04-15T00:37:41;8.00;99.90
18297;DHT22;18066;52.106;5.534;2023-04-15T00:40:11;7.60;99.90
18297;DHT22;18066;52.106;5.534;2023-04-15T00:42:38;8.10;99.90
18297;DHT22;18066;52.106;5.534;2023-04-15T00:45:07;8.10;99.90
18297;DHT22;18066;52.106;5.534;2023-04-15T00:47:35;8.20;99.90
18297;DHT22;18066;52.106;5.534;2023-04-15T00:50:03;8.30;99.90
18297;DHT22;18066;52.106;5.534;2023-04-15T00:52:30;8.30;99.90
18297;DHT22;18066;52.106;5.534;2023-04-15T00:54:57;8.20;99.90
18297;DHT22;18066;52.106;5.534;2023-04-15T00:57:25;8.30;99.90
18297;DHT22;18066;52.106;5.534;2023-04-15T00:59:54;8.20;99.90
18297;DHT22;18066;52.106;5.534;2023-04-15T01:02:23;8.20;99.90
18297;DHT22;18066;52.106;5.534;2023-04-15T01:04:50;8.20;99.90
18297;DHT22;18066;52.106;5.534;2023-04-15T01:07:17;8.10;99.90
18297;DHT22;18066;52.106;5.534;2023-04-15T01:09:44;8.20;99.90
18297;DHT22;18066;52.106;5.534;2023-04-15T01:12:13;8.10;99.90
18297;DHT22;18066;52.106;5.534;2023-04-15T01:14:41;8.00;99.90
18297;DHT22;18066;52.106;5.534;2023-04-15T01:17:08;8.20;99.90
18297;DHT22;18066;52.106;5.534;2023-04-15T01:19:37;7.80;99.90
18297;DHT22;18066;52.106;5.534;2023-04-15T01:22:04;7.80;99.90
18297;DHT22;18066;52.106;5.534;2023-04-15T01:24:31;8.00;99.90
18297;DHT22;18066;52.106;5.534;2023-04-15T01:27:00;7.80;99.90
18297;DHT22;18066;52.106;5.534;2023-04-15T01:29:28;8.50;99.90
18297;DHT22;18066;52.106;5.534;2023-04-15T01:31:55;7.80;99.90
18297;DHT22;18066;52.106;5.534;2023-04-15T01:34:22;7.80;99.90
18297;DHT22;18066;52.106;5.534;2023-04-15T01:36:49;7.70;99.90
18297;DHT22;18066;52.106;5.534;2023-04-15T01:39:16;7.60;99.90
18297;DHT22;18066;52.106;5.534;2023-04-15T01:41:42;7.50;99.90
18297;DHT22;18066;52.106;5.534;2023-04-15T01:44:11;7.80;99.90
18297;DHT22;18066;52.106;5.534;2023-04-15T01:46:38;7.70;99.90
18297;DHT22;18066;52.106;5.534;2023-04-15T01:49:05;7.60;99.90
18297;DHT22;18066;52.106;5.534;2023-04-15T01:51:32;7.60;99.90
18297;DHT22;18066;52.106;5.534;2023-04-15T01:53:58;7.50;99.90
18297;DHT22;18066;52.106;5.534;2023-04-15T01:56:25;7.70;99.90
18297;DHT22;18066;52.106;5.534;2023-04-15T01:58:52;7.60;99.90
18297;DHT22;18066;52.106;5.534;2023-04-15T02:01:21;7.60;99.90
18297;DHT22;18066;52.106;5.534;2023-04-15T02:03:47;7.50;99.90
18297;DHT22;18066;52.106;5.534;2023-04-15T02:06:14;7.30;99.90
18297;DHT22;18066;52.106;5.534;2023-04-15T02:08:42;7.20;99.90
18297;DHT22;18066;52.106;5.534;2023-04-15T02:11:09;6.90;99.90
18297;DHT22;18066;52.106;5.534;2023-04-15T02:13:36;7.30;99.90
18297;DHT22;18066;52.106;5.534;2023-04-15T02:16:04;6.50;99.90
18297;DHT22;18066;52.106;5.534;2023-04-15T02:18:42;7.00;99.90
18297;DHT22;18066;52.106;5.534;2023-04-15T02:21:09;6.90;99.90
18297;DHT22;18066;52.106;5.534;2023-04-15T02:23:36;6.80;99.90
18297;DHT22;18066;52.106;5.534;2023-04-15T02:26:03;6.90;99.90
18297;DHT22;18066;52.106;5.534;2023-04-15T02:28:30;7.00;99.90
18297;DHT22;18066;52.106;5.534;2023-04-15T02:30:56;7.00;99.90
18297;DHT22;18066;52.106;5.534;2023-04-15T02:33:24;7.30;99.90
18297;DHT22;18066;52.106;5.534;2023-04-15T02:35:52;7.20;99.90
18297;DHT22;18066;52.106;5.534;2023-04-15T02:38:19;7.30;99.90
18297;DHT22;18066;52.106;5.534;2023-04-15T02:40:46;7.30;99.90
18297;DHT22;18066;52.106;5.534;2023-04-15T02:43:14;7.40;99.90
18297;DHT22;18066;52.106;5.534;2023-04-15T02:45:41;7.50;99.90
18297;DHT22;18066;52.106;5.534;2023-04-15T02:48:09;7.50;99.90
18297;DHT22;18066;52.106;5.534;2023-04-15T02:50:36;7.50;99.90
18297;DHT22;18066;52.106;5.534;2023-04-15T02:53:05;8.00;99.90
18297;DHT22;18066;52.106;5.534;2023-04-15T02:55:32;7.40;99.90
18297;DHT22;18066;52.106;5.534;2023-04-15T02:57:59;7.50;99.90
18297;DHT22;18066;52.106;5.534;2023-04-15T03:00:26;7.60;99.90
18297;DHT22;18066;52.106;5.534;2023-04-15T03:02:57;7.50;99.90
18297;DHT22;18066;52.106;5.534;2023-04-15T03:05:25;8.20;99.90
18297;DHT22;18066;52.106;5.534;2023-04-15T03:07:52;7.50;99.90
18297;DHT22;18066;52.106;5.534;2023-04-15T03:10:21;7.40;99.90
18297;DHT22;18066;52.106;5.534;2023-04-15T03:12:48;7.50;99.90
18297;DHT22;18066;52.106;5.534;2023-04-15T03:15:14;7.00;99.90
18297;DHT22;18066;52.106;5.534;2023-04-15T03:17:41;7.50;99.90
18297;DHT22;18066;52.106;5.534;2023-04-15T03:20:09;8.20;99.90
18297;DHT22;18066;52.106;5.534;2023-04-15T03:22:35;7.50;99.90
18297;DHT22;18066;52.106;5.534;2023-04-15T03:25:03;7.60;99.90
18297;DHT22;18066;52.106;5.534;2023-04-15T03:27:31;7.40;99.90
18297;DHT22;18066;52.106;5.534;2023-04-15T03:29:58;7.40;99.90
18297;DHT22;18066;52.106;5.534;2023-04-15T03:32:25;8.10;99.90
18297;DHT22;18066;52.106;5.534;2023-04-15T03:34:52;7.50;99.90
18297;DHT22;18066;52.106;5.534;2023-04-15T03:37:18;7.30;99.90
18297;DHT22;18066;52.106;5.534;2023-04-15T03:39:46;7.60;99.90
18297;DHT22;18066;52.106;5.534;2023-04-15T03:42:12;7.40;99.90
18297;DHT22;18066;52.106;5.534;2023-04-15T03:44:41;7.80;99.90
18297;DHT22;18066;52.106;5.534;2023-04-15T03:47:08;7.10;99.90
18297;DHT22;18066;52.106;5.534;2023-04-15T03:49:35;7.00;99.90
18297;DHT22;18066;52.106;5.534;2023-04-15T03:52:02;7.20;99.90
18297;DHT22;18066;52.106;5.534;2023-04-15T03:54:29;7.20;99.90
18297;DHT22;18066;52.106;5.534;2023-04-15T03:56:56;7.20;99.90
18297;DHT22;18066;52.106;5.534;2023-04-15T03:59:23;7.20;99.90
18297;DHT22;18066;52.106;5.534;2023-04-15T04:01:51;7.30;99.90
18297;DHT22;18066;52.106;5.534;2023-04-15T04:04:18;8.00;99.90
18297;DHT22;18066;52.106;5.534;2023-04-15T04:06:44;7.20;99.90
18297;DHT22;18066;52.106;5.534;2023-04-15T04:09:11;7.20;99.90
18297;DHT22;18066;52.106;5.534;2023-04-15T04:11:38;7.10;99.90
18297;DHT22;18066;52.106;5.534;2023-04-15T04:14:05;7.10;99.90
18297;DHT22;18066;52.106;5.534;2023-04-15T04:16:32;7.00;99.90
18297;DHT22;18066;52.106;5.534;2023-04-15T04:19:00;7.10;99.90
18297;DHT22;18066;52.106;5.534;2023-04-15T04:21:27;7.10;99.90
18297;DHT22;18066;52.106;5.534;2023-04-15T04:23:53;6.90;99.90
18297;DHT22;18066;52.106;5.534;2023-04-15T04:26:21;6.80;99.90
18297;DHT22;18066;52.106;5.534;2023-04-15T04:28:48;7.00;99.90
18297;DHT22;18066;52.106;5.534;2023-04-15T04:31:15;7.20;99.90
18297;DHT22;18066;52.106;5.534;2023-04-15T04:33:42;7.00;99.90
18297;DHT22;18066;52.106;5.534;2023-04-15T04:36:10;6.50;99.90
18297;DHT22;18066;52.106;5.534;2023-04-15T04:38:37;6.90;99.90
18297;DHT22;18066;52.106;5.534;2023-04-15T04:41:04;7.00;99.90
18297;DHT22;18066;52.106;5.534;2023-04-15T04:43:31;6.90;99.90
18297;DHT22;18066;52.106;5.534;2023-04-15T04:45:58;7.00;99.90
18297;DHT22;18066;52.106;5.534;2023-04-15T04:48:24;6.60;99.90
18297;DHT22;18066;52.106;5.534;2023-04-15T04:50:52;6.60;99.90
18297;DHT22;18066;52.106;5.534;2023-04-15T04:53:20;6.70;99.90
18297;DHT22;18066;52.106;5.534;2023-04-15T04:55:47;7.10;99.90
18297;DHT22;18066;52.106;5.534;2023-04-15T04:58:14;6.70;99.90
18297;DHT22;18066;52.106;5.534;2023-04-15T05:00:41;6.80;99.90
18297;DHT22;18066;52.106;5.534;2023-04-15T05:03:08;6.70;99.90
18297;DHT22;18066;52.106;5.534;2023-04-15T05:05:35;6.70;99.90
18297;DHT22;18066;52.106;5.534;2023-04-15T05:08:04;6.80;99.90
18297;DHT22;18066;52.106;5.534;2023-04-15T05:10:32;6.90;99.90
18297;DHT22;18066;52.106;5.534;2023-04-15T05:12:59;6.80;99.90
18297;DHT22;18066;52.106;5.534;2023-04-15T05:15:26;6.90;99.90
18297;DHT22;18066;52.106;5.534;2023-04-15T05:17:53;6.80;99.90
18297;DHT22;18066;52.106;5.534;2023-04-15T05:20:20;6.90;99.90
18297;DHT22;18066;52.106;5.534;2023-04-15T05:22:47;7.00;99.90
18297;DHT22;18066;52.106;5.534;2023-04-15T05:25:14;7.00;99.90
18297;DHT22;18066;52.106;5.534;2023-04-15T05:27:42;7.10;99.90
18297;DHT22;18066;52.106;5.534;2023-04-15T05:30:10;7.10;99.90
18297;DHT22;18066;52.106;5.534;2023-04-15T05:32:37;7.20;99.90
18297;DHT22;18066;52.106;5.534;2023-04-15T05:35:05;7.20;99.90
18297;DHT22;18066;52.106;5.534;2023-04-15T05:37:33;7.30;99.90
18297;DHT22;18066;52.106;5.534;2023-04-15T05:40:00;7.30;99.90
18297;DHT22;18066;52.106;5.534;2023-04-15T05:42:26;7.30;99.90
18297;DHT22;18066;52.106;5.534;2023-04-15T05:44:55;7.40;99.90
18297;DHT22;18066;52.106;5.534;2023-04-15T05:47:21;7.30;99.90
18297;DHT22;18066;52.106;5.534;2023-04-15T05:49:48;7.20;99.90
18297;DHT22;18066;52.106;5.534;2023-04-15T05:52:15;7.20;99.90
18297;DHT22;18066;52.106;5.534;2023-04-15T05:54:42;7.30;99.90
18297;DHT22;18066;52.106;5.534;2023-04-15T05:57:09;7.30;99.90
18297;DHT22;18066;52.106;5.534;2023-04-15T05:59:36;7.30;99.90
18297;DHT22;18066;52.106;5.534;2023-04-15T06:02:05;7.30;99.90
18297;DHT22;18066;52.106;5.534;2023-04-15T06:04:32;7.30;99.90
18297;DHT22;18066;52.106;5.534;2023-04-15T06:06:59;7.30;99.90
18297;DHT22;18066;52.106;5.534;2023-04-15T06:09:25;7.40;99.90
18297;DHT22;18066;52.106;5.534;2023-04-15T06:11:53;7.60;99.90
18297;DHT22;18066;52.106;5.534;2023-04-15T06:14:20;7.70;99.90
18297;DHT22;18066;52.106;5.534;2023-04-15T06:16:47;7.80;99.90
18297;DHT22;18066;52.106;5.534;2023-04-15T06:19:15;7.90;99.90
18297;DHT22;18066;52.106;5.534;2023-04-15T06:21:43;7.90;99.90
18297;DHT22;18066;52.106;5.534;2023-04-15T06:24:10;8.00;99.90
18297;DHT22;18066;52.106;5.534;2023-04-15T06:26:37;8.10;99.90
18297;DHT22;18066;52.106;5.534;2023-04-15T06:29:04;8.10;99.90
18297;DHT22;18066;52.106;5.534;2023-04-15T06:31:30;8.10;99.90
18297;DHT22;18066;52.106;5.534;2023-04-15T06:33:57;8.20;99.90
18297;DHT22;18066;52.106;5.534;2023-04-15T06:36:26;8.20;99.90
18297;DHT22;18066;52.106;5.534;2023-04-15T06:38:52;8.30;99.90
18297;DHT22;18066;52.106;5.534;2023-04-15T06:41:19;8.30;99.90
18297;DHT22;18066;52.106;5.534;2023-04-15T06:43:46;8.80;99.90
18297;DHT22;18066;52.106;5.534;2023-04-15T06:46:13;9.00;99.90
18297;DHT22;18066;52.106;5.534;2023-04-15T06:48:40;8.70;99.90
18297;DHT22;18066;52.106;5.534;2023-04-15T06:51:07;9.20;99.90
18297;DHT22;18066;52.106;5.534;2023-04-15T06:53:35;8.80;99.90
18297;DHT22;18066;52.106;5.534;2023-04-15T06:56:06;8.80;99.90
18297;DHT22;18066;52.106;5.534;2023-04-15T06:58:33;8.90;99.90
18297;DHT22;18066;52.106;5.534;2023-04-15T07:01:00;9.00;99.90
18297;DHT22;18066;52.106;5.534;2023-04-15T07:03:27;9.10;99.90
18297;DHT22;18066;52.106;5.534;2023-04-15T07:05:54;9.20;99.90
18297;DHT22;18066;52.106;5.534;2023-04-15T07:08:21;9.30;99.90
18297;DHT22;18066;52.106;5.534;2023-04-15T07:10:50;9.20;99.90
18297;DHT22;18066;52.106;5.534;2023-04-15T07:13:17;9.30;99.90
18297;DHT22;18066;52.106;5.534;2023-04-15T07:15:44;9.40;99.90
18297;DHT22;18066;52.106;5.534;2023-04-15T07:18:10;9.40;99.90
18297;DHT22;18066;52.106;5.534;2023-04-15T07:20:38;9.60;99.90
18297;DHT22;18066;52.106;5.534;2023-04-15T07:23:05;9.60;99.90
18297;DHT22;18066;52.106;5.534;2023-04-15T07:25:32;9.80;99.90
18297;DHT22;18066;52.106;5.534;2023-04-15T07:28:00;9.90;99.90
18297;DHT22;18066;52.106;5.534;2023-04-15T07:30:27;10.00;99.90
18297;DHT22;18066;52.106;5.534;2023-04-15T07:32:54;10.20;99.90
18297;DHT22;18066;52.106;5.534;2023-04-15T07:35:22;10.40;99.90
18297;DHT22;18066;52.106;5.534;2023-04-15T07:37:50;10.40;99.90
18297;DHT22;18066;52.106;5.534;2023-04-15T07:40:17;10.50;99.90
18297;DHT22;18066;52.106;5.534;2023-04-15T07:42:44;10.40;99.90
18297;DHT22;18066;52.106;5.534;2023-04-15T07:45:13;10.40;99.90
18297;DHT22;18066;52.106;5.534;2023-04-15T07:47:39;10.40;99.90
18297;DHT22;18066;52.106;5.534;2023-04-15T07:50:08;10.40;99.90
18297;DHT22;18066;52.106;5.534;2023-04-15T07:52:36;10.40;99.90
18297;DHT22;18066;52.106;5.534;2023-04-15T07:55:04;10.50;99.90
18297;DHT22;18066;52.106;5.534;2023-04-15T07:57:33;10.40;99.90
18297;DHT22;18066;52.106;5.534;2023-04-15T08:00:00;10.40;99.90
18297;DHT22;18066;52.106;5.534;2023-04-15T08:02:28;10.50;99.90
18297;DHT22;18066;52.106;5.534;2023-04-15T08:04:56;10.60;99.90
18297;DHT22;18066;52.106;5.534;2023-04-15T08:07:23;10.70;99.90
18297;DHT22;18066;52.106;5.534;2023-04-15T08:09:50;10.80;99.90
18297;DHT22;18066;52.106;5.534;2023-04-15T08:12:17;11.00;99.90
18297;DHT22;18066;52.106;5.534;2023-04-15T08:14:44;11.10;99.90
18297;DHT22;18066;52.106;5.534;2023-04-15T08:17:11;11.20;99.90
18297;DHT22;18066;52.106;5.534;2023-04-15T08:19:39;11.20;99.90
18297;DHT22;18066;52.106;5.534;2023-04-15T08:22:07;11.20;99.90
18297;DHT22;18066;52.106;5.534;2023-04-15T08:24:33;11.30;99.90
18297;DHT22;18066;52.106;5.534;2023-04-15T08:27:01;11.30;99.90
18297;DHT22;18066;52.106;5.534;2023-04-15T08:29:29;11.30;99.90
18297;DHT22;18066;52.106;5.534;2023-04-15T08:31:56;11.30;99.90
18297;DHT22;18066;52.106;5.534;2023-04-15T08:34:23;11.20;99.90
18297;DHT22;18066;52.106;5.534;2023-04-15T08:36:51;11.20;99.90
18297;DHT22;18066;52.106;5.534;2023-04-15T08:39:18;11.20;99.90
18297;DHT22;18066;52.106;5.534;2023-04-15T08:41:46;11.40;99.90
18297;DHT22;18066;52.106;5.534;2023-04-15T08:44:13;11.50;99.90
18297;DHT22;18066;52.106;5.534;2023-04-15T08:46:41;11.50;99.90
18297;DHT22;18066;52.106;5.534;2023-04-15T08:49:10;11.60;99.90
18297;DHT22;18066;52.106;5.534;2023-04-15T08:51:38;11.60;99.90
18297;DHT22;18066;52.106;5.534;2023-04-15T08:54:07;11.60;99.90
18297;DHT22;18066;52.106;5.534;2023-04-15T08:56:35;11.80;99.90
18297;DHT22;18066;52.106;5.534;2023-04-15T08:59:02;11.80;99.90
18297;DHT22;18066;52.106;5.534;2023-04-15T09:01:31;11.90;99.90
18297;DHT22;18066;52.106;5.534;2023-04-15T09:03:58;12.00;99.90
18297;DHT22;18066;52.106;5.534;2023-04-15T09:06:25;11.90;99.90
18297;DHT22;18066;52.106;5.534;2023-04-15T09:08:52;11.90;99.90
18297;DHT22;18066;52.106;5.534;2023-04-15T09:11:21;11.90;99.90
18297;DHT22;18066;52.106;5.534;2023-04-15T09:13:48;12.00;99.90
18297;DHT22;18066;52.106;5.534;2023-04-15T09:16:15;11.90;99.90
18297;DHT22;18066;52.106;5.534;2023-04-15T09:18:42;11.80;99.90
18297;DHT22;18066;52.106;5.534;2023-04-15T09:21:10;11.70;99.90
18297;DHT22;18066;52.106;5.534;2023-04-15T09:23:39;11.70;99.90
18297;DHT22;18066;52.106;5.534;2023-04-15T09:26:06;11.80;99.90
18297;DHT22;18066;52.106;5.534;2023-04-15T09:28:40;11.90;99.90
18297;DHT22;18066;52.106;5.534;2023-04-15T09:31:07;12.00;99.90
18297;DHT22;18066;52.106;5.534;2023-04-15T09:33:35;12.10;99.90
18297;DHT22;18066;52.106;5.534;2023-04-15T09:36:04;12.00;99.90
18297;DHT22;18066;52.106;5.534;2023-04-15T09:38:31;12.10;99.90
18297;DHT22;18066;52.106;5.534;2023-04-15T09:40:58;12.00;99.90
18297;DHT22;18066;52.106;5.534;2023-04-15T09:43:38;12.00;99.90
18297;DHT22;18066;52.106;5.534;2023-04-15T09:46:06;12.00;99.90
18297;DHT22;18066;52.106;5.534;2023-04-15T09:48:33;12.20;99.90
18297;DHT22;18066;52.106;5.534;2023-04-15T09:51:00;12.10;99.90
18297;DHT22;18066;52.106;5.534;2023-04-15T09:53:27;12.40;99.90
18297;DHT22;18066;52.106;5.534;2023-04-15T09:55:55;12.50;99.90
18297;DHT22;18066;52.106;5.534;2023-04-15T09:58:23;12.70;99.90
18297;DHT22;18066;52.106;5.534;2023-04-15T10:00:53;12.90;99.90
18297;DHT22;18066;52.106;5.534;2023-04-15T10:03:22;13.00;99.90
18297;DHT22;18066;52.106;5.534;2023-04-15T10:05:51;12.90;99.90
18297;DHT22;18066;52.106;5.534;2023-04-15T10:08:18;13.00;99.90
18297;DHT22;18066;52.106;5.534;2023-04-15T10:10:47;13.30;99.90
18297;DHT22;18066;52.106;5.534;2023-04-15T10:13:16;13.40;99.90
18297;DHT22;18066;52.106;5.534;2023-04-15T10:15:44;13.40;99.90
18297;DHT22;18066;52.106;5.534;2023-04-15T10:18:16;13.60;99.90
18297;DHT22;18066;52.106;5.534;2023-04-15T10:20:45;13.70;99.90
18297;DHT22;18066;52.106;5.534;2023-04-15T10:23:14;13.70;99.90
18297;DHT22;18066;52.106;5.534;2023-04-15T10:25:42;13.60;99.90
18297;DHT22;18066;52.106;5.534;2023-04-15T10:28:10;13.50;99.90
18297;DHT22;18066;52.106;5.534;2023-04-15T10:30:37;13.30;99.90
18297;DHT22;18066;52.106;5.534;2023-04-15T10:33:05;13.10;99.90
18297;DHT22;18066;52.106;5.534;2023-04-15T10:35:35;13.20;99.90
18297;DHT22;18066;52.106;5.534;2023-04-15T10:38:33;13.40;99.90
18297;DHT22;18066;52.106;5.534;2023-04-15T10:41:16;13.30;99.90
18297;DHT22;18066;52.106;5.534;2023-04-15T10:43:49;13.10;99.90
18297;DHT22;18066;52.106;5.534;2023-04-15T10:46:18;13.00;99.90
18297;DHT22;18066;52.106;5.534;2023-04-15T10:48:47;13.00;99.90
18297;DHT22;18066;52.106;5.534;2023-04-15T10:51:14;13.00;99.90
18297;DHT22;18066;52.106;5.534;2023-04-15T10:53:42;13.20;99.90
18297;DHT22;18066;52.106;5.534;2023-04-15T10:56:09;13.10;99.90
18297;DHT22;18066;52.106;5.534;2023-04-15T10:58:40;13.10;99.90
18297;DHT22;18066;52.106;5.534;2023-04-15T11:01:07;13.10;99.90
18297;DHT22;18066;52.106;5.534;2023-04-15T11:03:37;13.00;99.90
18297;DHT22;18066;52.106;5.534;2023-04-15T11:06:04;13.10;99.90
18297;DHT22;18066;52.106;5.534;2023-04-15T11:08:55;13.00;99.90
18297;DHT22;18066;52.106;5.534;2023-04-15T11:14:32;13.50;99.90
18297;DHT22;18066;52.106;5.534;2023-04-15T11:16:58;13.70;99.90
18297;DHT22;18066;52.106;5.534;2023-04-15T11:19:26;13.80;99.90
18297;DHT22;18066;52.106;5.534;2023-04-15T11:22:06;13.60;99.90
18297;DHT22;18066;52.106;5.534;2023-04-15T11:24:33;13.60;99.90
18297;DHT22;18066;52.106;5.534;2023-04-15T11:27:01;13.60;99.90
18297;DHT22;18066;52.106;5.534;2023-04-15T11:29:30;13.60;99.90
18297;DHT22;18066;52.106;5.534;2023-04-15T11:32:08;13.60;99.90
18297;DHT22;18066;52.106;5.534;2023-04-15T11:34:35;13.60;99.90
18297;DHT22;18066;52.106;5.534;2023-04-15T11:37:03;13.60;99.90
18297;DHT22;18066;52.106;5.534;2023-04-15T11:39:31;13.50;99.90
18297;DHT22;18066;52.106;5.534;2023-04-15T11:41:57;13.60;99.90
18297;DHT22;18066;52.106;5.534;2023-04-15T11:44:24;13.80;99.90
18297;DHT22;18066;52.106;5.534;2023-04-15T11:46:54;14.00;99.90
18297;DHT22;18066;52.106;5.534;2023-04-15T11:49:28;14.30;99.90
18297;DHT22;18066;52.106;5.534;2023-04-15T11:51:55;14.40;99.90
18297;DHT22;18066;52.106;5.534;2023-04-15T11:54:22;14.30;99.90
18297;DHT22;18066;52.106;5.534;2023-04-15T11:56:51;14.20;99.90
18297;DHT22;18066;52.106;5.534;2023-04-15T11:59:19;14.00;99.90
18297;DHT22;18066;52.106;5.534;2023-04-15T12:01:45;13.90;99.90
18297;DHT22;18066;52.106;5.534;2023-04-15T12:04:15;13.90;99.90
18297;DHT22;18066;52.106;5.534;2023-04-15T12:06:44;13.30;99.90
18297;DHT22;18066;52.106;5.534;2023-04-15T12:09:12;13.50;99.90
18297;DHT22;18066;52.106;5.534;2023-04-15T12:11:41;13.60;99.90
18297;DHT22;18066;52.106;5.534;2023-04-15T12:14:10;13.80;99.90
18297;DHT22;18066;52.106;5.534;2023-04-15T12:16:40;13.90;99.90
18297;DHT22;18066;52.106;5.534;2023-04-15T12:19:09;14.00;99.90
18297;DHT22;18066;52.106;5.534;2023-04-15T12:21:39;13.90;99.90
18297;DHT22;18066;52.106;5.534;2023-04-15T12:24:07;14.00;99.90
18297;DHT22;18066;52.106;5.534;2023-04-15T12:26:36;14.10;99.90
18297;DHT22;18066;52.106;5.534;2023-04-15T12:29:05;13.90;99.90
18297;DHT22;18066;52.106;5.534;2023-04-15T12:31:33;13.80;99.90
18297;DHT22;18066;52.106;5.534;2023-04-15T12:34:01;13.80;99.90
18297;DHT22;18066;52.106;5.534;2023-04-15T12:36:29;14.10;99.90
18297;DHT22;18066;52.106;5.534;2023-04-15T12:39:02;14.30;99.90
18297;DHT22;18066;52.106;5.534;2023-04-15T12:41:29;14.30;99.90
18297;DHT22;18066;52.106;5.534;2023-04-15T12:43:56;14.40;99.90
18297;DHT22;18066;52.106;5.534;2023-04-15T12:46:23;14.40;99.90
18297;DHT22;18066;52.106;5.534;2023-04-15T12:48:50;14.30;99.90
18297;DHT22;18066;52.106;5.534;2023-04-15T12:51:18;14.20;99.90
18297;DHT22;18066;52.106;5.534;2023-04-15T12:53:45;14.00;99.90
18297;DHT22;18066;52.106;5.534;2023-04-15T12:56:14;14.10;99.90
18297;DHT22;18066;52.106;5.534;2023-04-15T12:58:41;14.10;99.90
18297;DHT22;18066;52.106;5.534;2023-04-15T13:01:08;14.10;99.90
18297;DHT22;18066;52.106;5.534;2023-04-15T13:03:35;14.10;99.90
18297;DHT22;18066;52.106;5.534;2023-04-15T13:06:02;14.10;99.90
18297;DHT22;18066;52.106;5.534;2023-04-15T13:08:30;14.10;99.90
18297;DHT22;18066;52.106;5.534;2023-04-15T13:10:57;14.10;99.90
18297;DHT22;18066;52.106;5.534;2023-04-15T13:13:25;14.10;99.90
18297;DHT22;18066;52.106;5.534;2023-04-15T13:15:52;14.00;99.90
18297;DHT22;18066;52.106;5.534;2023-04-15T13:18:19;13.80;99.90
18297;DHT22;18066;52.106;5.534;2023-04-15T13:20:48;13.60;99.90
18297;DHT22;18066;52.106;5.534;2023-04-15T13:23:14;13.40;99.90
18297;DHT22;18066;52.106;5.534;2023-04-15T13:25:41;13.50;99.90
18297;DHT22;18066;52.106;5.534;2023-04-15T13:28:10;13.40;99.90
18297;DHT22;18066;52.106;5.534;2023-04-15T13:30:38;13.50;99.90
18297;DHT22;18066;52.106;5.534;2023-04-15T13:33:05;13.60;99.90
18297;DHT22;18066;52.106;5.534;2023-04-15T13:35:32;13.60;99.90
18297;DHT22;18066;52.106;5.534;2023-04-15T13:37:59;13.50;99.90
18297;DHT22;18066;52.106;5.534;2023-04-15T13:40:26;13.30;99.90
18297;DHT22;18066;52.106;5.534;2023-04-15T13:42:53;13.20;99.90
18297;DHT22;18066;52.106;5.534;2023-04-15T13:45:20;13.20;99.90
18297;DHT22;18066;52.106;5.534;2023-04-15T13:47:48;13.10;99.90
18297;DHT22;18066;52.106;5.534;2023-04-15T13:50:15;13.00;99.90
18297;DHT22;18066;52.106;5.534;2023-04-15T13:52:42;12.90;99.90
18297;DHT22;18066;52.106;5.534;2023-04-15T13:55:09;12.70;99.90
18297;DHT22;18066;52.106;5.534;2023-04-15T13:57:36;12.70;99.90
18297;DHT22;18066;52.106;5.534;2023-04-15T14:00:03;12.50;99.90
18297;DHT22;18066;52.106;5.534;2023-04-15T14:02:31;12.50;99.90
18297;DHT22;18066;52.106;5.534;2023-04-15T14:04:59;12.70;99.90
18297;DHT22;18066;52.106;5.534;2023-04-15T14:07:26;12.60;99.90
18297;DHT22;18066;52.106;5.534;2023-04-15T14:09:54;12.60;99.90
18297;DHT22;18066;52.106;5.534;2023-04-15T14:12:21;12.60;99.90
18297;DHT22;18066;52.106;5.534;2023-04-15T14:14:48;12.50;99.90
18297;DHT22;18066;52.106;5.534;2023-04-15T14:17:15;12.30;99.90
18297;DHT22;18066;52.106;5.534;2023-04-15T14:19:41;11.90;99.90
18297;DHT22;18066;52.106;5.534;2023-04-15T14:22:10;11.70;99.90
18297;DHT22;18066;52.106;5.534;2023-04-15T14:24:36;11.70;99.90
18297;DHT22;18066;52.106;5.534;2023-04-15T14:27:03;11.80;99.90
18297;DHT22;18066;52.106;5.534;2023-04-15T14:29:30;11.80;99.90
18297;DHT22;18066;52.106;5.534;2023-04-15T14:31:57;11.60;99.90
18297;DHT22;18066;52.106;5.534;2023-04-15T14:34:23;11.60;99.90
18297;DHT22;18066;52.106;5.534;2023-04-15T14:36:51;11.60;99.90
18297;DHT22;18066;52.106;5.534;2023-04-15T14:39:19;11.40;99.90
18297;DHT22;18066;52.106;5.534;2023-04-15T14:41:46;11.50;99.90
18297;DHT22;18066;52.106;5.534;2023-04-15T14:44:13;11.40;99.90
18297;DHT22;18066;52.106;5.534;2023-04-15T14:46:39;11.30;99.90
18297;DHT22;18066;52.106;5.534;2023-04-15T14:49:06;11.30;99.90
18297;DHT22;18066;52.106;5.534;2023-04-15T14:51:33;11.30;99.90
18297;DHT22;18066;52.106;5.534;2023-04-15T14:54:00;11.30;99.90
18297;DHT22;18066;52.106;5.534;2023-04-15T14:56:28;11.20;99.90
18297;DHT22;18066;52.106;5.534;2023-04-15T14:58:55;11.10;99.90
18297;DHT22;18066;52.106;5.534;2023-04-15T15:01:22;11.10;99.90
18297;DHT22;18066;52.106;5.534;2023-04-15T15:03:49;11.20;99.90
18297;DHT22;18066;52.106;5.534;2023-04-15T15:06:16;11.10;99.90
18297;DHT22;18066;52.106;5.534;2023-04-15T15:08:43;11.20;99.90
18297;DHT22;18066;52.106;5.534;2023-04-15T15:11:09;11.20;99.90
18297;DHT22;18066;52.106;5.534;2023-04-15T15:13:38;11.00;99.90
18297;DHT22;18066;52.106;5.534;2023-04-15T15:16:05;11.00;99.90
18297;DHT22;18066;52.106;5.534;2023-04-15T15:18:32;11.00;99.90
18297;DHT22;18066;52.106;5.534;2023-04-15T15:20:58;11.10;99.90
18297;DHT22;18066;52.106;5.534;2023-04-15T15:23:25;11.20;99.90
18297;DHT22;18066;52.106;5.534;2023-04-15T15:25:52;11.10;99.90
18297;DHT22;18066;52.106;5.534;2023-04-15T15:28:19;11.10;99.90
18297;DHT22;18066;52.106;5.534;2023-04-15T15:30:49;11.20;99.90
18297;DHT22;18066;52.106;5.534;2023-04-15T15:33:16;11.10;99.90
18297;DHT22;18066;52.106;5.534;2023-04-15T15:35:43;11.10;99.90
18297;DHT22;18066;52.106;5.534;2023-04-15T15:38:10;11.10;99.90
18297;DHT22;18066;52.106;5.534;2023-04-15T15:40:37;11.00;99.90
18297;DHT22;18066;52.106;5.534;2023-04-15T15:43:04;10.60;99.90